EDT,Max TemperatureF,Mean TemperatureF,Min TemperatureF,Max Dew PointF,MeanDew PointF,Min DewpointF,Max Humidity, Mean Humidity, Min Humidity, Max Sea Level PressureIn, Mean Sea Level PressureIn, Min Sea Level PressureIn, Max VisibilityMiles, Mean VisibilityMiles, Min VisibilityMiles, Max Wind SpeedMPH, Mean Wind SpeedMPH, Max Gust SpeedMPH,PrecipitationIn, CloudCover, Events, WindDirDegrees
2013-5-1,77,58,39,46,40,37,81,53,16,30.45,30.39,30.30,10,9,9,6,4,,0.00,3,,71
2013-5-2,79,60,42,45,40,36,82,50,19,30.45,30.41,30.38,10,9,9,12,6,18,0.00,4,Rain,75
2013-5-3,72,54,35,41,37,32,87,50,21,30.55,30.45,30.34,10,9,9,13,6,,0.00,1,,102
2013-5-4,76,58,41,43,37,28,81,46,9,30.38,30.29,30.19,10,9,9,8,5,,0.00,0,,82
2013-5-5,77,56,36,39,35,28,81,41,10,30.26,30.19,30.12,10,9,9,8,3,,0.00,0,,153
2013-5-6,79,60,41,41,36,32,81,41,11,30.19,30.12,30.04,10,9,9,14,4,17,0.00,0,,183
2013-5-7,81,60,40,39,33,27,81,33,7,30.12,30.08,30.04,10,9,9,16,5,21,0.00,0,,205
2013-5-8,84,63,42,54,42,32,76,47,8,30.18,30.10,30.03,10,9,9,21,6,28,0.03,2,Rain,126
2013-5-9,74,64,55,59,56,50,100,85,32,30.06,29.92,29.85,10,8,1,17,4,18,0.08,8,Rain-Thunderstorm,125
2013-5-10,71,60,50,56,52,45,100,84,32,29.98,29.92,29.85,10,6,0,9,3,18,0.00,6,Fog-Rain,275
2013-5-11,69,60,51,61,56,47,100,86,61,29.82,29.67,29.57,10,8,3,18,7,28,0.28,8,Rain,202
2013-5-12,62,51,40,49,42,27,100,74,35,29.71,29.65,29.58,10,9,2,17,5,24,0.00,7,Rain,240
2013-5-13,48,41,34,36,30,25,87,64,37,30.02,29.87,29.70,10,9,6,23,12,31,0.08,7,Rain,242
2013-5-14,54,41,28,30,26,23,93,58,22,30.09,30.04,29.99,10,9,9,13,6,22,0.00,5,,284
2013-5-15,64,46,27,48,37,21,100,73,11,30.01,29.75,29.59,10,7,2,14,5,23,0.16,5,Rain,148
2013-5-16,59,52,46,48,44,39,94,75,43,29.85,29.67,29.57,10,9,6,17,8,24,0.01,7,Rain,271
2013-5-17,60,50,41,43,40,36,93,77,33,30.21,30.03,29.86,10,8,3,14,6,21,0.01,7,Rain,319
2013-5-18,67,50,34,45,38,32,100,62,17,30.32,30.27,30.23,10,9,9,9,4,,0.00,4,Rain,15
2013-5-19,72,54,36,54,44,30,100,70,16,30.32,30.21,30.11,10,8,4,17,6,26,0.24,4,Rain,147
2013-5-20,71,61,51,59,53,50,100,91,49,30.09,30.00,29.96,10,6,2,13,6,21,0.63,7,Rain,218
2013-5-21,59,55,51,54,51,48,100,90,69,30.02,29.96,29.85,10,7,1,21,7,36,0.20,8,Rain,69
2013-5-22,71,60,49,63,54,48,100,91,67,29.88,29.85,29.76,10,7,2,10,6,,0.24,8,Rain,102
2013-5-23,73,66,58,66,60,57,100,90,72,29.76,29.74,29.69,10,7,2,18,6,28,1.06,8,Rain-Thunderstorm,195
2013-5-24,58,51,44,57,48,41,100,93,87,30.01,29.84,29.71,10,6,2,13,5,22,0.24,8,Rain,315
2013-5-25,44,40,35,43,37,34,93,92,86,30.02,29.97,29.89,10,6,2,15,7,28,0.51,8,Rain-Snow,4
2013-5-26,46,40,35,43,39,36,93,88,76,30.05,29.92,29.83,10,9,4,14,8,25,0.04,8,Rain,322
2013-5-27,63,46,29,43,34,30,100,76,21,30.16,30.09,30.04,10,7,1,21,4,26,0.00,1,,319
2013-5-28,71,52,33,46,38,32,93,60,18,30.24,30.18,30.13,10,9,9,5,3,,0.00,0,,92
2013-5-29,62,54,47,59,55,43,100,88,59,30.14,29.98,29.90,10,7,2,12,5,,0.59,8,Rain-Thunderstorm,149
2013-5-30,77,68,59,63,60,58,100,85,47,30.05,30.01,29.94,10,8,3,15,6,23,0.00,6,,248
2013-5-31,86,70,54,68,59,54,100,88,37,30.05,30.01,29.88,10,5,1,21,3,30,0.08,1,Rain-Thunderstorm,161